Terminal Aerodrome Forecast
Issued by NWS

Home | Current Version | Previous Version | Text Only | Print | Product List | Glossary On
Versions: 1 2 3 4 5 6 7 8 9 10 11 12 13 14 15 16 17 18 19 20 21
000
FTUS44 KCRP 162100 AAA
TAFLRD
TAF AMD
KLRD 162110Z 1621/1718 VRB05KT 5SM BR VCSH BKN025
      TEMPO 1621/1623 VRB15G25KT 1SM +TSRA SCT015 OVC025CB
     FM170000 VRB03KT P6SM VCSH BKN040
      TEMPO 1700/1702 VRB15G25KT 3SM TSRA OVC035CB
     FM170200 VRB03KT P6SM BKN040 OVC100
     FM170800 VRB03KT P6SM OVC020 PROB30 1715/1718 VRB15G25KT 5SM
      TSRA OVC015CB=

USA.gov is the U.S. government's official web portal to all federal, state and local government web resources and services.